Time;durP1;ratioP1;P1;durP2;ratioP2;P2;SDS_P1;SDS_P2;PMS_P1;PMS_P2;Temp;Humidity;BMP_temperature;BMP_pressure;BME280_temperature;BME280_humidity;BME280_pressure;Samples;Min_cycle;Max_cycle;Signal;HPM_P1;HPM_P2
2022/04/27 00:02:02;;;;;;;4.57;2.42;;;12.60;73.50;;;;;;10488987;28;20506;-56
2022/04/27 00:07:04;;;;;;;6.68;2.55;;;12.60;73.50;;;;;;10488864;28;20067;-59
2022/04/27 00:12:05;;;;;;;5.43;2.75;;;12.50;73.50;;;;;;10484344;28;20391;-58
2022/04/27 00:17:06;;;;;;;3.35;2.30;;;12.50;73.50;;;;;;10490547;28;20032;-58
2022/04/27 00:22:06;;;;;;;7.85;2.58;;;12.50;73.60;;;;;;10485679;28;20182;-57
2022/04/27 00:27:07;;;;;;;4.82;2.97;;;12.50;73.60;;;;;;10488278;28;20028;-58
2022/04/27 00:32:08;;;;;;;3.85;2.78;;;12.40;73.60;;;;;;10488131;28;20085;-58
2022/04/27 00:37:09;;;;;;;3.90;2.28;;;12.40;73.60;;;;;;10487746;28;20021;-57
2022/04/27 00:42:22;;;;;;;5.13;2.55;;;12.40;73.60;;;;;;10487502;28;20086;-59
2022/04/27 00:47:22;;;;;;;5.47;3.28;;;12.40;73.50;;;;;;10487527;28;20355;-57
2022/04/27 00:52:24;;;;;;;5.30;2.83;;;12.40;73.60;;;;;;10487212;28;20039;-57
2022/04/27 00:57:26;;;;;;;5.25;3.05;;;12.30;73.60;;;;;;10486910;28;20024;-57
2022/04/27 01:02:27;;;;;;;3.92;2.95;;;12.30;73.60;;;;;;10487006;28;20032;-57
2022/04/27 01:07:28;;;;;;;3.97;2.65;;;12.20;73.50;;;;;;10482863;28;20041;-59
2022/04/27 01:12:29;;;;;;;4.18;2.80;;;12.20;73.60;;;;;;10485580;28;20024;-58
2022/04/27 01:17:30;;;;;;;4.18;2.95;;;12.20;73.70;;;;;;10485494;28;20506;-57
2022/04/27 01:22:31;;;;;;;3.67;2.70;;;12.10;73.70;;;;;;10481965;28;20077;-58
2022/04/27 01:27:32;;;;;;;3.85;2.78;;;12.10;73.70;;;;;;10485964;28;20081;-58
2022/04/27 01:32:33;;;;;;;5.68;3.28;;;12.10;73.70;;;;;;10486208;28;20403;-59
2022/04/27 01:42:53;;;;;;;3.55;2.60;;;12.00;73.70;;;;;;10485886;28;20178;-58
2022/04/27 01:47:54;;;;;;;5.25;3.10;;;12.00;73.80;;;;;;10485983;28;20035;-58
2022/04/27 01:58:22;;;;;;;5.78;3.05;;;12.00;73.90;;;;;;10452073;28;20132;-58
2022/04/27 02:03:23;;;;;;;5.38;2.60;;;11.90;73.80;;;;;;10492672;28;20040;-59
2022/04/27 02:08:24;;;;;;;4.50;3.25;;;11.90;73.80;;;;;;10489707;28;20074;-57
2022/04/27 02:13:26;;;;;;;4.45;3.03;;;11.90;73.80;;;;;;10485552;28;20101;-58
2022/04/27 02:18:27;;;;;;;4.55;3.13;;;11.90;73.80;;;;;;10485402;28;20035;-55
2022/04/27 02:23:28;;;;;;;5.53;2.67;;;11.80;73.80;;;;;;10482983;28;20456;-58
2022/04/27 02:28:28;;;;;;;5.60;3.00;;;11.80;73.80;;;;;;10490337;28;20058;-57
2022/04/27 02:33:30;;;;;;;5.65;3.05;;;11.80;73.80;;;;;;10493040;28;20032;-57
2022/04/27 02:38:31;;;;;;;5.50;3.33;;;11.80;73.80;;;;;;10502245;28;20615;-58
2022/04/27 02:43:32;;;;;;;5.75;3.22;;;11.80;73.80;;;;;;10476268;28;20056;-58
2022/04/27 02:48:32;;;;;;;4.32;2.92;;;11.80;73.80;;;;;;10480267;28;20017;-56
2022/04/27 02:53:36;;;;;;;3.88;2.70;;;11.80;73.80;;;;;;10478601;28;20016;-59
2022/04/27 02:58:36;;;;;;;4.28;2.97;;;11.80;73.90;;;;;;10480393;28;20020;-58
2022/04/27 03:03:37;;;;;;;6.93;3.05;;;11.80;73.90;;;;;;10479107;28;20040;-58
2022/04/27 03:08:38;;;;;;;4.18;2.58;;;11.80;73.90;;;;;;10479317;28;20278;-60
2022/04/27 03:13:38;;;;;;;6.32;3.00;;;11.70;73.90;;;;;;10483997;28;20111;-58
2022/04/27 03:18:39;;;;;;;5.72;2.78;;;11.70;73.90;;;;;;10479351;28;20024;-58
2022/04/27 03:23:40;;;;;;;5.88;3.10;;;11.70;74.00;;;;;;10490532;28;20036;-57
2022/04/27 03:28:41;;;;;;;5.82;3.22;;;11.70;74.00;;;;;;10495524;28;20023;-58
2022/04/27 03:33:41;;;;;;;5.18;3.05;;;11.70;74.60;;;;;;10502612;28;20492;-59
2022/04/27 03:38:48;;;;;;;4.47;3.08;;;11.70;74.10;;;;;;10497483;28;20024;-57
2022/04/27 03:43:49;;;;;;;3.47;3.00;;;11.70;74.20;;;;;;10500688;28;20044;-58
2022/04/27 03:48:50;;;;;;;4.22;3.28;;;11.70;74.20;;;;;;10500384;28;20021;-59
2022/04/27 03:53:51;;;;;;;5.03;3.15;;;11.70;74.30;;;;;;10510898;28;20111;-58
2022/04/27 03:58:52;;;;;;;5.30;3.33;;;11.70;74.40;;;;;;10498356;28;20077;-58
2022/04/27 04:03:55;;;;;;;5.30;2.78;;;11.60;74.40;;;;;;10504120;28;20052;-59
2022/04/27 04:08:55;;;;;;;4.85;3.35;;;11.60;74.40;;;;;;10497793;28;20116;-57
2022/04/27 04:13:56;;;;;;;4.28;2.92;;;11.60;74.50;;;;;;10508975;28;20017;-57
2022/04/27 04:19:00;;;;;;;3.95;2.88;;;11.60;74.60;;;;;;10496606;28;20124;-59
2022/04/27 04:24:00;;;;;;;6.50;3.08;;;11.60;74.60;;;;;;10498870;28;20043;-58
2022/04/27 04:29:01;;;;;;;4.47;3.22;;;11.60;74.70;;;;;;10501388;28;20027;-58
2022/04/27 04:34:04;;;;;;;4.50;2.97;;;11.60;74.80;;;;;;10499905;28;20077;-58
2022/04/27 04:39:04;;;;;;;4.57;3.28;;;11.60;74.80;;;;;;10511149;28;20056;-59
2022/04/27 04:44:05;;;;;;;5.75;2.95;;;11.60;74.90;;;;;;10497659;28;20167;-58
2022/04/27 04:49:06;;;;;;;6.03;3.15;;;11.60;75.00;;;;;;10497444;28;20035;-59
2022/04/27 04:54:07;;;;;;;4.40;3.15;;;11.60;75.00;;;;;;10510643;28;20032;-59
2022/04/27 04:59:08;;;;;;;7.55;3.17;;;11.60;75.10;;;;;;10486369;28;20130;-57
2022/04/27 05:04:09;;;;;;;5.57;3.38;;;11.60;75.20;;;;;;10485060;28;20041;-59
2022/04/27 05:09:10;;;;;;;5.15;3.30;;;11.60;75.30;;;;;;10486941;28;20068;-58
2022/04/27 05:14:10;;;;;;;6.65;3.35;;;11.60;75.30;;;;;;10488545;28;20033;-56
2022/04/27 05:19:11;;;;;;;4.80;3.22;;;11.60;75.30;;;;;;10488468;28;20028;-58
2022/04/27 05:24:12;;;;;;;6.18;3.08;;;11.60;75.40;;;;;;10485533;28;20052;-58
2022/04/27 05:34:33;;;;;;;6.47;3.50;;;11.60;75.50;;;;;;10487022;28;20029;-58
2022/04/27 05:39:34;;;;;;;3.50;2.65;;;11.60;75.50;;;;;;10497171;28;20024;-57
2022/04/27 05:44:35;;;;;;;4.35;3.08;;;11.70;75.50;;;;;;10486741;28;20036;-56
2022/04/27 05:49:35;;;;;;;4.60;3.20;;;11.70;75.60;;;;;;10486610;28;20492;-56
2022/04/27 05:54:36;;;;;;;6.30;3.42;;;11.70;75.60;;;;;;10486290;28;20368;-59
2022/04/27 05:59:36;;;;;;;3.72;2.50;;;11.70;75.60;;;;;;10486111;28;20386;-58
2022/04/27 06:04:37;;;;;;;4.68;2.97;;;11.70;75.60;;;;;;10493745;28;20056;-59
2022/04/27 06:09:38;;;;;;;4.72;3.10;;;11.70;75.60;;;;;;10492574;28;20021;-58
2022/04/27 06:14:39;;;;;;;6.03;3.85;;;11.70;75.60;;;;;;10494418;28;20024;-59
2022/04/27 06:19:39;;;;;;;6.30;2.88;;;11.70;75.70;;;;;;10493735;28;20040;-59
2022/04/27 06:24:40;;;;;;;4.47;2.83;;;11.70;75.80;;;;;;10491062;28;20033;-57
2022/04/27 06:29:41;;;;;;;7.28;2.85;;;11.70;75.70;;;;;;10493386;28;20535;-58
2022/04/27 06:34:42;;;;;;;4.38;3.17;;;11.70;75.80;;;;;;10492921;28;20326;-59
2022/04/27 06:39:45;;;;;;;5.03;2.85;;;11.80;75.90;;;;;;10492694;28;20031;-59
2022/04/27 06:44:46;;;;;;;3.63;2.67;;;11.80;75.90;;;;;;10492178;28;20039;-59
2022/04/27 06:49:47;;;;;;;4.90;2.75;;;11.80;75.90;;;;;;10492534;28;20093;-58
2022/04/27 06:54:47;;;;;;;6.78;3.08;;;11.80;75.90;;;;;;10491992;28;20155;-59
2022/04/27 06:59:48;;;;;;;5.20;2.60;;;11.90;75.90;;;;;;10491507;28;20033;-59
2022/04/27 07:04:55;;;;;;;5.55;2.70;;;11.90;75.80;;;;;;10492020;28;20514;-60
2022/04/27 07:09:56;;;;;;;8.35;3.83;;;11.90;75.80;;;;;;10490570;28;20027;-56
2022/04/27 07:14:57;;;;;;;4.65;2.40;;;11.90;75.70;;;;;;10490542;28;20028;-58
2022/04/27 07:19:58;;;;;;;3.35;2.42;;;12.00;75.70;;;;;;10491624;28;20039;-59
2022/04/27 07:24:59;;;;;;;4.28;2.72;;;12.00;75.80;;;;;;10487337;28;20029;-57
2022/04/27 07:29:59;;;;;;;4.57;2.60;;;12.00;75.70;;;;;;10490419;28;20038;-58
2022/04/27 07:35:00;;;;;;;4.47;2.67;;;12.10;75.70;;;;;;10489449;28;20043;-57
2022/04/27 07:40:01;;;;;;;4.20;2.67;;;12.10;75.50;;;;;;10490883;28;20423;-58
2022/04/27 07:45:02;;;;;;;4.50;2.25;;;12.10;75.40;;;;;;10487884;28;20035;-56
2022/04/27 07:50:05;;;;;;;2.75;2.00;;;12.10;75.30;;;;;;10487915;28;20082;-59
2022/04/27 07:55:06;;;;;;;4.47;2.38;;;12.20;75.30;;;;;;10487598;28;20032;-57
2022/04/27 08:00:12;;;;;;;3.90;2.03;;;12.20;75.10;;;;;;10487888;28;20032;-58
2022/04/27 08:05:15;;;;;;;2.35;2.00;;;12.30;75.10;;;;;;10484502;28;20094;-59
2022/04/27 08:10:17;;;;;;;3.63;2.10;;;12.30;74.90;;;;;;10487240;28;20124;-58
2022/04/27 08:15:21;;;;;;;4.22;2.30;;;12.40;74.80;;;;;;10486847;28;20029;-59
2022/04/27 08:25:52;;;;;;;3.00;2.00;;;12.40;74.60;;;;;;10461422;28;20097;-57
2022/04/27 08:30:53;;;;;;;2.97;1.77;;;12.50;74.50;;;;;;10486291;28;20110;-59
2022/04/27 08:35:57;;;;;;;2.42;1.70;;;12.50;74.30;;;;;;10486212;28;21710;-58
2022/04/27 08:40:58;;;;;;;3.40;1.95;;;12.50;74.10;;;;;;10485552;28;20040;-58
2022/04/27 08:46:03;;;;;;;3.08;1.83;;;12.50;74.00;;;;;;10483838;28;20028;-57
2022/04/27 08:51:05;;;;;;;4.45;1.90;;;12.60;73.90;;;;;;10484711;28;20024;-56
2022/04/27 08:56:06;;;;;;;2.83;1.98;;;12.60;73.80;;;;;;10483520;28;20024;-58
2022/04/27 09:01:06;;;;;;;2.33;1.92;;;12.70;73.70;;;;;;10483189;28;20467;-58
2022/04/27 09:06:10;;;;;;;2.15;1.70;;;12.70;73.70;;;;;;10479358;28;20040;-58
2022/04/27 09:11:19;;;;;;;2.88;2.13;;;12.70;73.60;;;;;;10472468;28;20499;-58
2022/04/27 09:16:22;;;;;;;3.53;1.70;;;12.80;73.50;;;;;;10469821;28;20027;-57
2022/04/27 09:21:23;;;;;;;3.13;1.67;;;12.80;73.50;;;;;;10482834;28;20032;-57
2022/04/27 09:26:27;;;;;;;4.00;1.80;;;12.90;74.10;;;;;;10486637;28;20025;-59
2022/04/27 09:31:33;;;;;;;4.00;2.05;;;12.90;73.60;;;;;;10485496;28;20137;-59
2022/04/27 09:36:34;;;;;;;6.63;2.83;;;12.80;72.40;;;;;;10492970;28;20055;-57
2022/04/27 09:41:40;;;;;;;6.05;2.10;;;12.50;72.20;;;;;;10484097;28;20144;-58
2022/04/27 09:46:44;;;;;;;7.25;2.40;;;12.20;72.00;;;;;;10483417;28;20032;-58
2022/04/27 09:51:47;;;;;;;5.07;2.58;;;11.90;72.10;;;;;;10485317;28;20114;-57
2022/04/27 09:56:51;;;;;;;5.35;2.35;;;11.90;72.50;;;;;;10485236;28;20085;-57
2022/04/27 10:01:54;;;;;;;7.43;2.47;;;11.70;72.30;;;;;;10485578;28;20032;-57
2022/04/27 10:07:00;;;;;;;4.32;2.55;;;11.70;72.40;;;;;;10484693;28;20163;-57
2022/04/27 10:12:04;;;;;;;4.32;2.10;;;11.70;72.30;;;;;;10485031;28;20032;-58
2022/04/27 10:17:05;;;;;;;6.45;2.13;;;11.90;71.90;;;;;;10484710;28;20032;-59
2022/04/27 10:22:31;;;;;;;5.75;2.30;;;12.10;71.40;;;;;;10482216;28;20109;-58
2022/04/27 10:27:40;;;;;;;4.03;1.98;;;12.20;70.70;;;;;;10484135;28;20033;-59
2022/04/27 10:32:45;;;;;;;5.40;2.13;;;12.10;70.30;;;;;;10483966;28;20075;-59
2022/04/27 10:37:50;;;;;;;3.80;2.25;;;12.00;70.90;;;;;;10496126;28;20029;-59
2022/04/27 10:42:51;;;;;;;3.92;2.58;;;12.20;70.70;;;;;;10486111;28;20036;-59
2022/04/27 10:47:52;;;;;;;7.35;2.88;;;12.30;71.00;;;;;;10488433;28;20029;-58
2022/04/27 10:52:55;;;;;;;7.10;3.03;;;12.30;70.50;;;;;;10492823;28;20291;-58
2022/04/27 10:58:15;;;;;;;5.82;2.50;;;12.50;70.30;;;;;;10492657;28;20070;-59
2022/04/27 11:03:16;;;;;;;8.45;3.17;;;12.60;69.50;;;;;;10491148;28;20109;-55
2022/04/27 11:08:45;;;;;;;7.75;3.10;;;12.50;70.00;;;;;;10486226;28;20578;-54
2022/04/27 11:13:47;;;;;;;8.27;3.45;;;12.50;70.00;;;;;;10483505;28;20401;-54
2022/04/27 11:18:59;;;;;;;6.70;2.80;;;12.70;70.20;;;;;;10491472;28;20028;-55
2022/04/27 11:24:04;;;;;;;8.60;2.92;;;12.90;70.10;;;;;;10485091;28;20037;-55
2022/04/27 11:29:06;;;;;;;6.45;3.13;;;12.90;70.10;;;;;;10490713;28;20028;-56
2022/04/27 11:34:26;;;;;;;10.73;3.53;;;12.80;70.10;;;;;;10490985;28;20062;-55
2022/04/27 11:39:27;;;;;;;6.65;3.45;;;12.80;70.40;;;;;;10490421;28;20029;-55
2022/04/27 11:44:29;;;;;;;6.03;3.25;;;12.90;70.50;;;;;;10490389;28;20045;-54
2022/04/27 11:49:30;;;;;;;4.78;2.88;;;13.00;70.30;;;;;;10489431;28;20035;-55
2022/04/27 11:54:32;;;;;;;6.43;3.70;;;12.90;70.50;;;;;;10487921;28;20027;-51
2022/04/27 11:59:47;;;;;;;7.25;2.80;;;12.90;70.80;;;;;;10488025;28;20039;-58
2022/04/27 12:04:49;;;;;;;6.07;3.50;;;12.90;70.90;;;;;;10488186;28;20071;-55
2022/04/27 12:10:00;;;;;;;6.82;3.00;;;12.90;70.90;;;;;;10487182;28;20028;-55
2022/04/27 12:15:12;;;;;;;6.65;2.63;;;12.90;70.80;;;;;;10487465;28;20178;-60
2022/04/27 12:20:25;;;;;;;6.13;3.05;;;12.90;71.10;;;;;;10487099;28;20037;-56
2022/04/27 12:25:40;;;;;;;7.05;3.25;;;12.90;70.70;;;;;;10488174;28;20025;-58
2022/04/27 12:30:42;;;;;;;5.88;3.33;;;12.90;71.50;;;;;;10487461;28;20021;-57
2022/04/27 12:41:29;;;;;;;5.53;3.22;;;13.00;71.80;;;;;;10485756;28;20092;-58
2022/04/27 12:46:31;;;;;;;5.75;2.85;;;13.20;71.50;;;;;;10487194;28;20035;-58
2022/04/27 12:51:34;;;;;;;7.95;3.22;;;13.20;71.20;;;;;;10487879;28;20102;-55
2022/04/27 12:56:36;;;;;;;5.68;3.13;;;13.10;71.20;;;;;;10487664;28;20048;-57
2022/04/27 13:01:37;;;;;;;9.05;3.30;;;13.00;71.40;;;;;;10487031;28;20406;-56
2022/04/27 13:06:37;;;;;;;4.47;2.35;;;12.70;72.00;;;;;;10487254;28;20048;-58
2022/04/27 13:11:56;;;;;;;9.52;2.60;;;12.60;72.20;;;;;;10483912;28;20038;-58
2022/04/27 13:16:57;;;;;;;;;;;12.60;72.10;;;;;;10482648;28;20107;-56
2022/04/27 13:21:58;;;;;;;7.18;2.33;;;12.60;71.80;;;;;;10484044;28;19917;-57
2022/04/27 13:26:59;;;;;;;4.82;2.33;;;12.30;72.50;;;;;;10486126;28;20256;-57
2022/04/27 13:31:59;;;;;;;8.85;2.80;;;12.40;72.70;;;;;;10483615;28;20429;-58
2022/04/27 13:37:00;;;;;;;6.45;3.13;;;12.50;72.60;;;;;;10485135;28;20108;-57
2022/04/27 13:42:01;;;;;;;6.05;2.97;;;12.50;72.50;;;;;;10485002;28;20123;-56
2022/04/27 13:47:02;;;;;;;9.35;3.63;;;12.50;72.60;;;;;;10486253;28;20398;-56
2022/04/27 13:52:04;;;;;;;8.98;2.60;;;12.60;72.90;;;;;;10485502;28;20028;-56
2022/04/27 13:57:04;;;;;;;5.57;2.67;;;12.60;72.80;;;;;;10483904;28;20033;-56
2022/04/27 14:02:07;;;;;;;9.85;3.03;;;12.60;72.70;;;;;;10482997;28;20044;-56
2022/04/27 14:07:09;;;;;;;7.70;3.15;;;12.50;72.90;;;;;;10483296;28;20155;-57
2022/04/27 14:22:49;;;;;;;4.65;2.75;;;12.60;73.10;;;;;;10486436;28;20032;-56
2022/04/27 14:27:51;;;;;;;7.18;3.22;;;12.40;73.30;;;;;;10491925;28;20329;-56
2022/04/27 14:32:52;;;;;;;8.73;3.08;;;12.40;73.50;;;;;;10491581;28;20573;-57
2022/04/27 14:37:53;;;;;;;8.82;3.00;;;12.50;73.30;;;;;;10493077;28;20151;-57
2022/04/27 14:42:54;;;;;;;8.18;3.05;;;12.40;73.40;;;;;;10491084;28;20036;-58
2022/04/27 14:47:55;;;;;;;5.78;2.65;;;12.20;74.30;;;;;;10491511;28;20033;-57
2022/04/27 14:52:56;;;;;;;7.97;2.90;;;12.40;73.60;;;;;;10492521;28;20025;-56
2022/04/27 14:57:57;;;;;;;6.70;2.70;;;12.50;73.40;;;;;;10491427;28;20028;-56
2022/04/27 15:02:58;;;;;;;10.18;2.95;;;12.50;73.10;;;;;;10489364;28;20506;-54
2022/04/27 15:07:58;;;;;;;10.52;3.38;;;12.40;73.30;;;;;;10485732;28;20088;-54
2022/04/27 15:12:59;;;;;;;6.93;2.83;;;12.40;73.40;;;;;;10492181;28;20569;-56
2022/04/27 15:18:00;;;;;;;6.63;2.80;;;12.30;73.30;;;;;;10491833;28;20085;-56
2022/04/27 15:23:01;;;;;;;5.40;2.30;;;12.40;73.30;;;;;;10487920;28;20036;-56
2022/04/27 15:28:02;;;;;;;7.53;2.80;;;12.30;73.10;;;;;;10491057;28;20021;-56
2022/04/27 15:33:02;;;;;;;8.55;2.88;;;12.30;73.20;;;;;;10489925;28;20025;-55
2022/04/27 15:38:05;;;;;;;10.63;3.88;;;12.40;73.00;;;;;;10500746;28;20017;-56
2022/04/27 15:43:06;;;;;;;8.25;2.63;;;12.50;72.60;;;;;;10491075;28;20036;-56
2022/04/27 15:48:07;;;;;;;7.55;3.03;;;12.40;72.60;;;;;;10490447;28;20020;-55
2022/04/27 15:53:09;;;;;;;6.28;3.17;;;12.30;72.90;;;;;;10490136;28;20033;-55
2022/04/27 15:58:10;;;;;;;9.90;3.25;;;12.30;72.80;;;;;;10490328;28;20035;-54
2022/04/27 16:03:11;;;;;;;7.25;2.90;;;12.40;72.80;;;;;;10488637;28;20540;-56
2022/04/27 16:08:12;;;;;;;18.00;3.28;;;12.30;72.60;;;;;;10482633;28;20127;-55
2022/04/27 16:13:13;;;;;;;7.88;2.97;;;12.20;73.10;;;;;;10489820;28;20039;-56
2022/04/27 16:18:13;;;;;;;7.22;2.55;;;12.20;72.40;;;;;;10489060;28;20078;-63
2022/04/27 16:23:14;;;;;;;10.13;3.15;;;12.20;72.70;;;;;;10486910;28;20041;-55
2022/04/27 16:28:15;;;;;;;5.97;3.70;;;12.20;72.60;;;;;;10488722;28;20029;-55
2022/04/27 16:33:15;;;;;;;6.53;3.17;;;12.20;72.30;;;;;;10488312;28;20024;-56
2022/04/27 16:38:16;;;;;;;8.18;3.13;;;12.20;72.00;;;;;;10499254;28;20104;-56
2022/04/27 16:43:17;;;;;;;8.63;3.08;;;12.30;72.70;;;;;;10486190;28;20510;-55
2022/04/27 16:48:18;;;;;;;6.82;2.80;;;12.40;72.00;;;;;;10487550;28;20048;-57
2022/04/27 16:53:20;;;;;;;6.78;2.53;;;12.50;71.90;;;;;;10487580;28;20479;-56
2022/04/27 16:58:21;;;;;;;8.52;3.00;;;12.70;71.90;;;;;;10485965;28;20040;-56
2022/04/27 17:03:28;;;;;;;5.35;2.63;;;12.70;71.80;;;;;;10486644;28;20540;-55
2022/04/27 17:08:28;;;;;;;29.38;6.13;;;12.80;71.40;;;;;;10481435;28;20047;-53
2022/04/27 17:13:30;;;;;;;15.85;4.60;;;12.50;71.20;;;;;;10485812;28;20032;-56
2022/04/27 17:18:31;;;;;;;23.52;4.20;;;12.30;71.40;;;;;;10486574;28;20048;-58
2022/04/27 17:23:31;;;;;;;10.63;3.45;;;12.20;71.20;;;;;;10483696;28;20135;-58
2022/04/27 17:28:33;;;;;;;7.82;3.33;;;12.20;71.30;;;;;;10486153;28;20028;-52
2022/04/27 17:33:33;;;;;;;9.77;3.22;;;12.30;71.20;;;;;;10487154;28;20111;-56
2022/04/27 17:38:35;;;;;;;5.80;2.83;;;12.50;71.40;;;;;;10497221;28;20141;-63
2022/04/27 17:43:37;;;;;;;6.80;2.38;;;12.70;71.60;;;;;;10486167;28;20062;-59
2022/04/27 17:48:38;;;;;;;9.63;3.33;;;12.70;71.50;;;;;;10487020;28;20028;-59
2022/04/27 17:53:39;;;;;;;9.88;3.10;;;12.80;71.70;;;;;;10486275;28;20048;-60
2022/04/27 17:58:40;;;;;;;15.05;3.42;;;12.80;71.80;;;;;;10479737;28;20100;-60
2022/04/27 18:03:41;;;;;;;7.70;3.40;;;12.80;71.90;;;;;;10488856;28;20040;-59
2022/04/27 18:08:41;;;;;;;6.13;2.67;;;12.80;72.10;;;;;;10420658;28;20045;-52
2022/04/27 18:13:42;;;;;;;8.32;3.28;;;12.80;72.20;;;;;;10421558;28;20035;-59
2022/04/27 18:18:43;;;;;;;9.48;3.38;;;12.80;72.30;;;;;;10421305;28;20022;-56
2022/04/27 18:23:46;;;;;;;6.85;3.38;;;12.80;72.40;;;;;;10425480;28;20119;-56
2022/04/27 18:28:47;;;;;;;12.25;3.97;;;12.80;72.60;;;;;;10419086;28;20111;-60
2022/04/27 18:33:48;;;;;;;5.45;3.55;;;12.80;72.80;;;;;;10415118;28;20044;-58
2022/04/27 18:38:49;;;;;;;5.35;3.63;;;12.80;73.00;;;;;;10417421;28;20533;-57
2022/04/27 18:54:29;;;;;;;5.85;3.53;;;12.70;73.50;;;;;;10417507;28;20078;-59
2022/04/27 18:59:29;;;;;;;6.53;3.72;;;12.70;73.50;;;;;;10411149;28;20072;-58
2022/04/27 19:04:30;;;;;;;6.78;4.10;;;12.70;73.70;;;;;;10421735;28;20099;-57
2022/04/27 19:09:32;;;;;;;6.53;3.70;;;12.60;73.80;;;;;;10489127;28;20078;-56
2022/04/27 19:14:32;;;;;;;5.40;3.67;;;12.60;74.00;;;;;;10490251;28;20063;-56
2022/04/27 19:19:36;;;;;;;5.38;3.70;;;12.60;74.10;;;;;;10489816;28;20017;-57
2022/04/27 19:24:37;;;;;;;8.00;3.42;;;12.60;74.10;;;;;;10486380;28;20036;-59
2022/04/27 19:29:37;;;;;;;10.40;3.97;;;12.50;74.10;;;;;;10489910;28;20028;-57
2022/04/27 19:34:39;;;;;;;6.43;3.92;;;12.50;74.20;;;;;;10488499;28;20079;-55
2022/04/27 19:39:42;;;;;;;6.05;3.83;;;12.50;74.30;;;;;;10482665;28;20028;-57
2022/04/27 19:44:43;;;;;;;7.57;3.55;;;12.50;74.30;;;;;;10460715;28;20066;-58
2022/04/27 19:49:47;;;;;;;7.05;4.28;;;12.50;74.30;;;;;;10466710;28;20021;-59
2022/04/27 19:54:47;;;;;;;15.18;4.60;;;12.40;74.30;;;;;;10468006;28;20399;-57
2022/04/27 19:59:52;;;;;;;7.10;4.05;;;12.40;74.50;;;;;;10458694;28;20025;-56
2022/04/27 20:04:53;;;;;;;5.35;3.72;;;12.40;74.40;;;;;;10456601;28;20186;-56
2022/04/27 20:09:54;;;;;;;7.38;4.40;;;12.40;74.50;;;;;;10463795;28;20174;-59
2022/04/27 20:14:55;;;;;;;6.45;3.95;;;12.30;74.50;;;;;;10454249;28;20029;-59
2022/04/27 20:19:56;;;;;;;5.13;3.53;;;12.30;74.60;;;;;;10459793;28;20453;-56
2022/04/27 20:24:56;;;;;;;6.38;3.80;;;12.30;74.60;;;;;;10461430;28;20040;-58
2022/04/27 20:29:57;;;;;;;9.38;3.97;;;12.30;74.60;;;;;;10458403;28;20025;-59
2022/04/27 20:34:58;;;;;;;5.55;3.63;;;12.30;74.60;;;;;;10474697;28;20391;-59
2022/04/27 20:39:59;;;;;;;5.72;3.22;;;12.20;74.60;;;;;;10488551;28;20016;-56
2022/04/27 20:45:00;;;;;;;7.88;3.88;;;12.20;74.60;;;;;;10472191;28;20045;-54
2022/04/27 20:50:01;;;;;;;8.68;3.97;;;12.20;74.60;;;;;;10470406;28;20106;-60
2022/04/27 20:55:02;;;;;;;6.10;3.20;;;12.20;74.70;;;;;;10477568;28;20498;-54
2022/04/27 21:00:03;;;;;;;9.30;3.83;;;12.20;74.70;;;;;;10472168;28;20547;-55
2022/04/27 21:05:05;;;;;;;6.22;3.85;;;12.10;74.70;;;;;;10474806;28;20522;-56
2022/04/27 21:10:07;;;;;;;10.23;3.80;;;12.10;74.80;;;;;;10485279;28;20113;-58
2022/04/27 21:15:09;;;;;;;6.72;4.00;;;12.10;74.80;;;;;;10485204;28;20046;-58
2022/04/27 21:20:10;;;;;;;7.13;3.70;;;12.10;74.90;;;;;;10484733;28;20407;-56
2022/04/27 21:25:11;;;;;;;9.60;3.95;;;12.00;74.80;;;;;;10486240;28;20041;-53
2022/04/27 21:30:12;;;;;;;8.48;4.05;;;12.00;74.90;;;;;;10485176;28;20119;-56
2022/04/27 21:35:13;;;;;;;6.53;3.67;;;12.00;74.90;;;;;;10485350;28;20039;-60
2022/04/27 21:40:15;;;;;;;6.20;3.20;;;12.00;75.00;;;;;;10479824;28;20028;-57
2022/04/27 21:45:16;;;;;;;7.25;3.97;;;12.00;75.00;;;;;;10471437;28;20045;-57
2022/04/27 21:50:17;;;;;;;8.50;3.78;;;11.90;75.00;;;;;;10467152;28;20035;-58
2022/04/27 21:55:18;;;;;;;6.03;3.45;;;11.90;75.00;;;;;;10455882;28;20021;-58
2022/04/27 22:06:04;;;;;;;4.93;3.13;;;11.90;75.20;;;;;;10462028;28;20064;-58
2022/04/27 22:11:04;;;;;;;6.47;3.53;;;11.90;75.20;;;;;;10484946;28;20131;-60
2022/04/27 22:16:08;;;;;;;4.95;2.90;;;11.80;75.20;;;;;;10486236;28;20435;-60
2022/04/27 22:21:10;;;;;;;4.95;3.33;;;11.80;75.20;;;;;;10484599;28;20376;-59
2022/04/27 22:26:12;;;;;;;6.78;3.40;;;11.80;75.30;;;;;;10486108;28;20078;-59
2022/04/27 22:31:17;;;;;;;4.82;3.40;;;11.80;75.30;;;;;;10485218;28;20036;-54
2022/04/27 22:36:18;;;;;;;5.45;3.25;;;11.80;75.30;;;;;;10488486;28;20124;-59
2022/04/27 22:41:20;;;;;;;3.90;2.80;;;11.70;75.20;;;;;;10479190;28;20029;-58
2022/04/27 22:46:22;;;;;;;5.28;3.10;;;11.70;75.20;;;;;;10491817;28;20024;-56
2022/04/27 22:51:23;;;;;;;5.43;3.33;;;11.70;75.30;;;;;;10492783;28;20147;-59
2022/04/27 22:56:24;;;;;;;4.90;3.17;;;11.70;75.40;;;;;;10492651;28;20031;-59
2022/04/27 23:01:24;;;;;;;7.70;3.53;;;11.60;75.30;;;;;;10492635;28;20441;-58
2022/04/27 23:06:25;;;;;;;5.05;3.22;;;11.60;75.30;;;;;;10492226;28;20044;-58
2022/04/27 23:11:26;;;;;;;4.80;3.30;;;11.60;75.30;;;;;;10491486;28;20037;-58
2022/04/27 23:16:28;;;;;;;5.50;3.10;;;11.60;75.40;;;;;;10494470;28;20389;-58
2022/04/27 23:21:28;;;;;;;6.05;3.58;;;11.60;75.40;;;;;;10492399;28;20036;-58
2022/04/27 23:26:29;;;;;;;6.00;3.33;;;11.50;75.30;;;;;;10492941;28;20028;-58
2022/04/27 23:31:30;;;;;;;6.32;3.30;;;11.50;75.30;;;;;;10492328;28;20036;-58
2022/04/27 23:36:30;;;;;;;6.35;2.90;;;11.50;75.40;;;;;;10497056;28;20019;-57
2022/04/27 23:41:31;;;;;;;4.32;2.90;;;11.50;75.40;;;;;;10491813;28;20194;-58
2022/04/27 23:46:32;;;;;;;5.72;2.88;;;11.50;75.40;;;;;;10491548;28;20021;-57
2022/04/27 23:51:32;;;;;;;4.75;2.58;;;11.50;75.40;;;;;;10490959;28;20024;-57
2022/04/27 23:56:34;;;;;;;6.82;3.25;;;11.40;75.30;;;;;;10489834;28;20089;-57
